Time;durP1;ratioP1;P1;durP2;ratioP2;P2;SDS_P1;SDS_P2;PMS_P1;PMS_P2;Temp;Humidity;BMP_temperature;BMP_pressure;BME280_temperature;BME280_humidity;BME280_pressure;Samples;Min_cycle;Max_cycle;Signal;HPM_P1;HPM_P2
2021/05/12 00:00:29;;;;;;;;;;;16.40;66.90;;;;;;5046006;28;20029;-67
2021/05/12 00:02:55;;;;;;;8.95;1.58;;;16.40;67.70;;;;;;5044785;28;19958;-68
2021/05/12 00:05:23;;;;;;;4.10;1.23;;;16.30;67.80;;;;;;5045360;28;20017;-67
2021/05/12 00:07:49;;;;;;;5.50;1.52;;;16.20;68.00;;;;;;5046062;28;20037;-68
2021/05/12 00:10:15;;;;;;;;;;;16.20;67.50;;;;;;5046579;28;20282;-67
2021/05/12 00:12:41;;;;;;;4.72;1.27;;;16.30;67.30;;;;;;5045358;28;19908;-68
2021/05/12 00:15:10;;;;;;;3.15;1.00;;;16.30;66.70;;;;;;5045749;28;20041;-67
2021/05/12 00:17:38;;;;;;;3.08;0.95;;;16.40;66.40;;;;;;5044541;28;20033;-68
2021/05/12 00:20:06;;;;;;;5.25;0.98;;;16.50;65.50;;;;;;5045823;28;20025;-68
2021/05/12 00:22:57;;;;;;;5.95;0.98;;;16.70;65.00;;;;;;5045801;28;20024;-67
2021/05/12 00:25:18;;;;;;;3.92;0.95;;;16.80;64.80;;;;;;5045373;28;20044;-67
2021/05/12 00:27:44;;;;;;;4.70;1.15;;;16.80;64.80;;;;;;5047232;28;20397;-67
2021/05/12 00:30:14;;;;;;;7.55;1.55;;;16.90;63.60;;;;;;5049575;28;20568;-67
2021/05/12 00:32:41;;;;;;;5.47;1.02;;;17.00;63.40;;;;;;5049623;28;20036;-67
2021/05/12 00:35:09;;;;;;;6.68;1.15;;;17.10;63.10;;;;;;5048065;28;20037;-66
2021/05/12 00:37:35;;;;;;;10.55;1.48;;;17.10;63.00;;;;;;5049077;28;20032;-67
2021/05/12 00:40:00;;;;;;;5.55;1.23;;;17.10;63.10;;;;;;5049580;28;20665;-68
2021/05/12 00:42:30;;;;;;;;;;;17.00;63.60;;;;;;5048504;28;20029;-67
2021/05/12 00:44:56;;;;;;;3.78;1.10;;;16.90;65.20;;;;;;5049054;28;19924;-67
2021/05/12 00:47:29;;;;;;;4.68;1.52;;;16.70;65.50;;;;;;5049388;28;20025;-66
2021/05/12 00:49:56;;;;;;;4.13;1.15;;;16.50;66.40;;;;;;5048805;28;20029;-68
2021/05/12 00:52:23;;;;;;;5.80;1.10;;;16.40;67.00;;;;;;5049136;28;20497;-67
2021/05/12 00:54:48;;;;;;;6.85;1.10;;;16.30;67.40;;;;;;5049108;28;20032;-68
2021/05/12 00:57:14;;;;;;;;;;;16.20;67.50;;;;;;5049229;28;20033;-68
2021/05/12 00:59:42;;;;;;;2.30;1.38;;;16.10;67.70;;;;;;5049328;28;19915;-67
2021/05/12 01:02:08;;;;;;;11.23;1.33;;;16.10;67.60;;;;;;5048963;28;20068;-67
2021/05/12 01:04:34;;;;;;;;;;;16.00;68.10;;;;;;5049198;28;20055;-67
2021/05/12 01:06:59;;;;;;;16.25;1.90;;;15.90;68.70;;;;;;5048534;28;19909;-67
2021/05/12 01:09:25;;;;;;;6.18;1.40;;;15.80;69.30;;;;;;5048963;28;20087;-68
2021/05/12 01:11:50;;;;;;;4.93;1.40;;;15.80;69.50;;;;;;5049050;28;20398;-67
2021/05/12 01:14:16;;;;;;;7.75;1.17;;;15.70;69.80;;;;;;5048473;28;20033;-67
2021/05/12 01:16:43;;;;;;;;;;;15.60;70.20;;;;;;5048955;28;20036;-68
2021/05/12 01:19:10;;;;;;;6.32;1.40;;;15.50;71.30;;;;;;5048529;28;19908;-68
2021/05/12 01:21:36;;;;;;;3.72;1.25;;;15.40;71.20;;;;;;5046789;28;20076;-69
2021/05/12 01:24:01;;;;;;;;;;;15.30;71.70;;;;;;5049097;28;20083;-67
2021/05/12 01:26:27;;;;;;;6.35;1.30;;;15.20;72.00;;;;;;5048681;28;19936;-67
2021/05/12 01:28:53;;;;;;;;;;;15.20;72.00;;;;;;5048812;28;20405;-67
2021/05/12 01:31:23;;;;;;;3.35;1.27;;;15.10;72.60;;;;;;5048639;28;19904;-68
2021/05/12 01:33:50;;;;;;;9.05;1.38;;;15.00;72.80;;;;;;5048319;28;20029;-67
2021/05/12 01:36:17;;;;;;;6.30;1.92;;;15.00;72.90;;;;;;5048294;28;20041;-67
2021/05/12 01:38:45;;;;;;;8.18;1.50;;;14.90;73.10;;;;;;5046743;28;20051;-66
2021/05/12 01:41:12;;;;;;;4.15;1.65;;;14.90;73.30;;;;;;5048353;28;20032;-67
2021/05/12 01:43:38;;;;;;;7.10;1.75;;;14.90;73.00;;;;;;5048521;28;20036;-68
2021/05/12 01:46:05;;;;;;;5.22;1.55;;;14.90;72.70;;;;;;5047864;28;20544;-68
2021/05/12 01:48:31;;;;;;;5.15;1.55;;;14.90;72.50;;;;;;5047982;28;20052;-67
2021/05/12 01:50:57;;;;;;;4.07;1.30;;;14.90;72.60;;;;;;5047711;28;20456;-68
2021/05/12 01:53:24;;;;;;;5.45;1.10;;;14.90;72.80;;;;;;5046748;28;20028;-67
2021/05/12 01:55:51;;;;;;;2.75;1.17;;;14.90;72.60;;;;;;5046855;28;20067;-67
2021/05/12 01:58:17;;;;;;;4.65;1.30;;;14.90;72.60;;;;;;5047850;28;20017;-67
2021/05/12 02:00:45;;;;;;;6.32;1.17;;;14.90;72.30;;;;;;5048032;28;20226;-68
2021/05/12 02:03:11;;;;;;;6.10;1.30;;;14.90;72.10;;;;;;5047641;28;20109;-67
2021/05/12 02:05:38;;;;;;;;;;;14.90;72.60;;;;;;5049056;28;20044;-67
2021/05/12 02:08:06;;;;;;;7.80;2.15;;;14.90;73.00;;;;;;5047760;28;20317;-68
2021/05/12 02:10:33;;;;;;;3.42;1.42;;;14.80;73.40;;;;;;5047707;28;20112;-67
2021/05/12 02:12:59;;;;;;;5.32;1.50;;;14.80;72.80;;;;;;5046558;28;20029;-68
2021/05/12 02:15:26;;;;;;;4.07;1.65;;;14.80;72.70;;;;;;5047166;28;20370;-67
2021/05/12 02:17:52;;;;;;;2.35;1.27;;;14.70;72.80;;;;;;5047472;28;20037;-68
2021/05/12 02:20:21;;;;;;;2.70;1.08;;;14.70;73.00;;;;;;5046952;28;20017;-68
2021/05/12 02:22:46;;;;;;;5.05;1.80;;;14.70;73.20;;;;;;5047775;28;20468;-68
2021/05/12 02:25:12;;;;;;;;;;;14.60;73.70;;;;;;5047601;28;20044;-67
2021/05/12 02:27:38;;;;;;;4.28;1.83;;;14.60;74.50;;;;;;5047363;28;19930;-68
2021/05/12 02:30:05;;;;;;;;;;;14.50;74.40;;;;;;5051694;28;20094;-68
2021/05/12 02:32:31;;;;;;;5.70;1.45;;;14.40;74.60;;;;;;5047165;28;19909;-68
2021/05/12 02:34:57;;;;;;;5.35;1.52;;;14.40;75.00;;;;;;5046529;28;20096;-69
2021/05/12 02:37:24;;;;;;;7.07;1.40;;;14.30;74.90;;;;;;5046780;28;20064;-67
2021/05/12 02:39:50;;;;;;;6.80;1.65;;;14.30;74.80;;;;;;5047270;28;20013;-68
2021/05/12 02:42:16;;;;;;;;;;;14.30;75.10;;;;;;5045970;28;20035;-68
2021/05/12 02:44:41;;;;;;;6.13;1.83;;;14.20;75.00;;;;;;5046474;28;19952;-68
2021/05/12 02:47:07;;;;;;;6.60;2.15;;;14.30;75.10;;;;;;5045295;28;20513;-67
2021/05/12 02:49:33;;;;;;;;;;;14.30;75.00;;;;;;5046611;28;20594;-67
2021/05/12 02:51:59;;;;;;;3.75;1.40;;;14.30;75.00;;;;;;5047025;28;19904;-68
2021/05/12 02:54:25;;;;;;;6.68;1.52;;;14.30;75.10;;;;;;5047087;28;20512;-68
2021/05/12 02:56:50;;;;;;;;;;;14.30;74.00;;;;;;5045776;28;20037;-68
2021/05/12 02:59:16;;;;;;;2.95;1.00;;;14.40;72.20;;;;;;5046941;28;20286;-68
2021/05/12 03:01:42;;;;;;;6.00;1.30;;;14.50;72.00;;;;;;5047112;28;20021;-68
2021/05/12 03:04:07;;;;;;;5.68;1.42;;;14.60;71.30;;;;;;5046075;28;20392;-67
2021/05/12 03:06:33;;;;;;;;;;;14.70;70.60;;;;;;5046676;28;20029;-68
2021/05/12 03:08:58;;;;;;;3.53;0.93;;;14.70;70.40;;;;;;5046941;28;19909;-68
2021/05/12 03:11:24;;;;;;;;;;;14.70;70.80;;;;;;5045553;28;20124;-68
2021/05/12 03:13:50;;;;;;;8.45;1.45;;;14.70;71.50;;;;;;5046254;28;19948;-68
2021/05/12 03:16:15;;;;;;;;;;;14.60;71.70;;;;;;5047109;28;20032;-68
2021/05/12 03:18:41;;;;;;;5.18;1.23;;;14.50;72.10;;;;;;5045679;28;19904;-67
2021/05/12 03:21:07;;;;;;;;;;;14.40;72.30;;;;;;5047036;28;20083;-67
2021/05/12 03:23:32;;;;;;;10.95;1.50;;;14.50;72.70;;;;;;5046622;28;20537;-67
2021/05/12 03:25:58;;;;;;;;;;;14.30;72.70;;;;;;5046981;28;20029;-68
2021/05/12 03:28:24;;;;;;;3.88;1.20;;;14.40;73.10;;;;;;5046243;28;19905;-68
2021/05/12 03:30:50;;;;;;;;;;;14.30;73.30;;;;;;5045522;28;20405;-68
2021/05/12 03:33:15;;;;;;;4.22;1.55;;;14.30;73.60;;;;;;5044870;28;20315;-66
2021/05/12 03:35:41;;;;;;;5.63;1.30;;;14.20;73.50;;;;;;5046373;28;20076;-68
2021/05/12 03:38:13;;;;;;;8.48;1.60;;;14.30;73.40;;;;;;5045961;28;20044;-67
2021/05/12 03:40:40;;;;;;;5.18;1.38;;;14.30;73.30;;;;;;5046342;28;20540;-68
2021/05/12 03:43:06;;;;;;;5.82;1.20;;;14.30;73.40;;;;;;5046279;28;20037;-68
2021/05/12 03:45:32;;;;;;;4.72;1.45;;;14.30;73.60;;;;;;5045627;28;20102;-67
2021/05/12 03:47:58;;;;;;;;;;;14.30;73.50;;;;;;5045894;28;20032;-67
2021/05/12 03:50:27;;;;;;;6.18;1.38;;;14.30;73.70;;;;;;5044610;28;19908;-68
2021/05/12 03:52:53;;;;;;;3.60;1.67;;;14.40;72.90;;;;;;5046003;28;20029;-68
2021/05/12 03:55:19;;;;;;;4.03;1.85;;;14.40;73.00;;;;;;5045942;28;20498;-68
2021/05/12 03:57:45;;;;;;;6.10;1.20;;;14.50;73.20;;;;;;5046116;28;20108;-68
2021/05/12 04:00:11;;;;;;;;;;;14.60;72.70;;;;;;5046648;28;20104;-67
2021/05/12 04:02:37;;;;;;;6.13;1.60;;;14.80;72.30;;;;;;5048488;28;19909;-68
2021/05/12 04:05:03;;;;;;;5.13;1.52;;;15.00;72.00;;;;;;5049963;28;20037;-67
2021/05/12 04:07:29;;;;;;;4.85;1.40;;;15.20;71.60;;;;;;5050005;28;20029;-68
2021/05/12 04:09:55;;;;;;;;;;;15.40;70.60;;;;;;5050407;28;20033;-68
2021/05/12 04:12:21;;;;;;;6.97;1.40;;;15.60;69.60;;;;;;5050045;28;19955;-67
2021/05/12 04:14:46;;;;;;;12.43;1.42;;;15.80;68.90;;;;;;5049455;28;20033;-68
2021/05/12 04:17:12;;;;;;;;;;;16.10;67.70;;;;;;5050009;28;20571;-68
2021/05/12 04:19:37;;;;;;;8.80;1.35;;;16.60;66.20;;;;;;5049288;28;19915;-68
2021/05/12 04:22:03;;;;;;;;;;;16.90;65.50;;;;;;5049867;28;20028;-67
2021/05/12 04:24:30;;;;;;;3.30;1.33;;;17.10;64.80;;;;;;5048240;28;20008;-68
2021/05/12 04:26:56;;;;;;;4.88;1.48;;;17.10;64.00;;;;;;5047692;28;20178;-68
2021/05/12 04:29:22;;;;;;;3.13;1.10;;;17.20;63.90;;;;;;5044968;28;20541;-68
2021/05/12 04:31:47;;;;;;;4.78;1.38;;;17.30;63.20;;;;;;5032295;28;20032;-68
2021/05/12 04:34:13;;;;;;;7.70;1.38;;;17.50;62.70;;;;;;5022249;28;20021;-69
2021/05/12 04:36:39;;;;;;;4.03;1.00;;;17.80;60.60;;;;;;5021500;28;20077;-69
2021/05/12 04:39:05;;;;;;;4.30;1.30;;;18.10;59.60;;;;;;5023323;28;20689;-68
2021/05/12 04:41:32;;;;;;;2.83;1.23;;;18.30;57.10;;;;;;5023113;28;20114;-66
2021/05/12 04:43:58;;;;;;;7.78;1.00;;;18.60;57.40;;;;;;5023367;28;20018;-68
2021/05/12 04:46:25;;;;;;;6.40;1.60;;;18.70;57.30;;;;;;5022941;28;20650;-68
2021/05/12 04:48:52;;;;;;;2.78;1.30;;;18.80;57.20;;;;;;5033995;28;20032;-68
2021/05/12 04:51:22;;;;;;;5.57;1.20;;;19.00;55.90;;;;;;5044945;28;20029;-68
2021/05/12 04:53:48;;;;;;;5.32;0.80;;;19.10;51.10;;;;;;5044196;28;20025;-68
2021/05/12 04:56:15;;;;;;;3.17;1.17;;;19.40;50.60;;;;;;5044222;28;20045;-68
2021/05/12 04:58:40;;;;;;;12.82;1.33;;;19.50;51.30;;;;;;5044057;28;20029;-68
2021/05/12 05:01:06;;;;;;;2.67;1.05;;;19.70;50.50;;;;;;5043047;28;20040;-69
2021/05/12 05:03:34;;;;;;;4.53;1.10;;;19.80;49.80;;;;;;5044120;28;20448;-69
2021/05/12 05:05:59;;;;;;;3.63;0.90;;;20.00;51.10;;;;;;5044314;28;20131;-67
2021/05/12 05:08:26;;;;;;;4.93;1.10;;;20.10;49.60;;;;;;5044464;28;20115;-68
2021/05/12 05:10:52;;;;;;;6.63;1.17;;;20.40;44.40;;;;;;5042101;28;20471;-68
2021/05/12 05:13:18;;;;;;;2.95;1.20;;;20.70;43.90;;;;;;5043623;28;20527;-68
2021/05/12 05:15:45;;;;;;;6.10;1.20;;;21.20;44.10;;;;;;5042367;28;20409;-68
2021/05/12 05:18:11;;;;;;;1.90;0.77;;;21.50;43.10;;;;;;5036818;28;20025;-68
2021/05/12 05:20:37;;;;;;;4.25;1.08;;;21.80;41.60;;;;;;5045160;28;20029;-68
2021/05/12 05:23:05;;;;;;;1.90;0.82;;;21.80;40.70;;;;;;5045075;28;20037;-68
2021/05/12 05:25:31;;;;;;;5.25;1.25;;;22.20;38.50;;;;;;5045292;28;20436;-68
2021/05/12 05:27:57;;;;;;;2.88;0.93;;;22.40;39.00;;;;;;5044268;28;20029;-67
2021/05/12 05:30:22;;;;;;;4.88;1.05;;;22.50;39.00;;;;;;5044981;28;20071;-68
2021/05/12 05:32:48;;;;;;;6.78;1.00;;;22.60;38.90;;;;;;5044720;28;20040;-67
2021/05/12 05:35:14;;;;;;;7.15;1.63;;;22.60;38.10;;;;;;5044452;28;20033;-68
2021/05/12 05:37:40;;;;;;;6.20;1.45;;;22.60;37.70;;;;;;5044790;28;20090;-68
2021/05/12 05:40:06;;;;;;;3.08;1.13;;;23.00;37.50;;;;;;5044860;28;20082;-68
2021/05/12 05:42:32;;;;;;;8.43;1.55;;;23.50;37.50;;;;;;5045029;28;20535;-68
2021/05/12 05:44:58;;;;;;;10.55;1.27;;;23.90;35.90;;;;;;5044137;28;20734;-67
2021/05/12 05:47:23;;;;;;;6.97;1.25;;;24.30;35.50;;;;;;5044468;28;20025;-68
2021/05/12 05:49:50;;;;;;;10.75;0.95;;;24.80;33.90;;;;;;5044706;28;20041;-67
2021/05/12 05:52:16;;;;;;;7.55;1.30;;;25.30;33.10;;;;;;5044441;28;20024;-69
2021/05/12 05:54:41;;;;;;;8.95;1.58;;;25.90;33.30;;;;;;5044473;28;20559;-68
2021/05/12 05:57:14;;;;;;;3.78;1.35;;;26.50;32.40;;;;;;5044504;28;20029;-69
2021/05/12 05:59:40;;;;;;;2.95;1.20;;;27.10;30.50;;;;;;5044611;28;20032;-66
2021/05/12 06:04:51;;;;;;;9.32;1.05;;;28.70;28.20;;;;;;5044355;28;20039;-68
2021/05/12 06:07:17;;;;;;;3.58;1.20;;;28.70;28.20;;;;;;5044217;28;20024;-67
2021/05/12 06:09:43;;;;;;;8.48;1.23;;;29.10;27.50;;;;;;5044292;28;20033;-69
2021/05/12 06:12:08;;;;;;;4.40;1.10;;;30.00;26.00;;;;;;5043890;28;20061;-69
2021/05/12 06:14:34;;;;;;;3.22;1.50;;;30.90;25.30;;;;;;5042768;28;20025;-69
2021/05/12 06:17:00;;;;;;;5.65;1.10;;;30.90;25.50;;;;;;5043518;28;20480;-68
2021/05/12 06:19:25;;;;;;;10.65;1.48;;;31.50;25.40;;;;;;5044235;28;20328;-68
2021/05/12 06:21:51;;;;;;;3.88;1.42;;;32.00;24.20;;;;;;5043831;28;20024;-70
2021/05/12 06:24:17;;;;;;;8.63;1.20;;;31.80;23.60;;;;;;5043388;28;20125;-69
2021/05/12 06:26:43;;;;;;;3.63;1.20;;;32.30;24.10;;;;;;5044059;28;20035;-68
2021/05/12 06:29:08;;;;;;;6.65;1.05;;;32.50;23.30;;;;;;5047327;28;20142;-68
2021/05/12 06:31:34;;;;;;;8.57;1.35;;;33.40;22.70;;;;;;5047229;28;20374;-69
2021/05/12 06:34:01;;;;;;;3.95;1.52;;;33.30;22.90;;;;;;5045676;28;20029;-68
2021/05/12 06:36:27;;;;;;;4.28;1.20;;;33.00;22.60;;;;;;5046772;28;20039;-69
2021/05/12 06:38:52;;;;;;;7.65;1.98;;;32.70;22.30;;;;;;5045928;28;20033;-68
2021/05/12 06:41:18;;;;;;;8.48;1.40;;;32.70;23.30;;;;;;5046900;28;20111;-68
2021/05/12 06:43:44;;;;;;;5.40;1.58;;;32.50;23.40;;;;;;5047302;28;20025;-68
2021/05/12 06:46:09;;;;;;;11.52;1.40;;;32.80;22.80;;;;;;5046623;28;20057;-69
2021/05/12 06:48:35;;;;;;;6.30;1.30;;;33.10;23.00;;;;;;5046940;28;20037;-68
2021/05/12 06:51:01;;;;;;;11.07;1.75;;;33.00;23.30;;;;;;5046860;28;20025;-68
2021/05/12 06:53:32;;;;;;;6.13;1.40;;;33.50;22.80;;;;;;5045531;28;20029;-69
2021/05/12 06:55:58;;;;;;;3.50;1.45;;;33.30;23.50;;;;;;5046405;28;20041;-69
2021/05/12 06:58:24;;;;;;;7.82;1.30;;;33.00;22.80;;;;;;5046781;28;20028;-68
2021/05/12 07:00:51;;;;;;;10.80;1.15;;;32.80;23.10;;;;;;5046423;28;20379;-68
2021/05/12 07:03:24;;;;;;;5.93;1.65;;;32.70;23.20;;;;;;5046457;28;20028;-67
2021/05/12 07:05:51;;;;;;;6.45;1.10;;;32.40;23.80;;;;;;5046492;28;20051;-68
2021/05/12 07:08:17;;;;;;;3.00;1.00;;;32.60;24.00;;;;;;5046860;28;20025;-69
2021/05/12 07:10:43;;;;;;;8.48;1.40;;;32.60;23.50;;;;;;5046458;28;20118;-68
2021/05/12 07:13:08;;;;;;;7.63;1.38;;;32.70;23.80;;;;;;5046505;28;20110;-67
2021/05/12 07:15:35;;;;;;;4.05;1.70;;;32.90;23.20;;;;;;5046288;28;20029;-68
2021/05/12 07:18:00;;;;;;;15.20;1.95;;;33.00;23.40;;;;;;5045980;28;20025;-69
2021/05/12 07:20:26;;;;;;;7.38;1.13;;;33.00;24.00;;;;;;5046560;28;20029;-68
2021/05/12 07:22:52;;;;;;;4.50;1.42;;;33.10;23.60;;;;;;5046350;28;20079;-68
2021/05/12 07:25:18;;;;;;;2.28;0.90;;;32.90;23.60;;;;;;5046132;28;20393;-68
2021/05/12 07:27:43;;;;;;;5.95;1.15;;;32.70;24.00;;;;;;5046530;28;20029;-68
2021/05/12 07:30:09;;;;;;;5.05;1.42;;;32.90;24.50;;;;;;5046235;28;20039;-69
2021/05/12 07:32:35;;;;;;;4.53;1.58;;;32.70;23.80;;;;;;5045677;28;20103;-68
2021/05/12 07:35:01;;;;;;;3.75;1.20;;;32.40;23.40;;;;;;5046275;28;20076;-68
2021/05/12 07:37:27;;;;;;;3.13;1.42;;;32.00;24.30;;;;;;5045995;28;20052;-68
2021/05/12 07:39:53;;;;;;;7.72;1.05;;;32.10;24.60;;;;;;5044843;28;20035;-68
2021/05/12 07:42:19;;;;;;;4.45;1.10;;;31.90;24.80;;;;;;5045842;28;20059;-68
2021/05/12 07:44:48;;;;;;;6.28;1.65;;;31.80;24.70;;;;;;5046066;28;20045;-68
2021/05/12 07:47:14;;;;;;;4.05;1.10;;;31.80;25.30;;;;;;5046101;28;20056;-68
2021/05/12 07:49:42;;;;;;;3.80;1.10;;;32.10;25.50;;;;;;5046166;28;20044;-69
2021/05/12 07:52:13;;;;;;;5.03;1.95;;;32.60;25.10;;;;;;5046257;28;20085;-68
2021/05/12 07:54:40;;;;;;;4.25;1.10;;;33.20;24.90;;;;;;5046077;28;20559;-69
2021/05/12 07:57:06;;;;;;;2.33;1.50;;;33.70;24.10;;;;;;5045720;28;20043;-69
2021/05/12 07:59:32;;;;;;;12.25;1.63;;;34.10;23.80;;;;;;5046168;28;20078;-68
2021/05/12 08:02:01;;;;;;;10.48;1.55;;;34.20;23.20;;;;;;5044338;28;20413;-69
2021/05/12 08:04:27;;;;;;;5.50;1.58;;;34.10;23.50;;;;;;5044722;28;20025;-69
2021/05/12 08:06:52;;;;;;;5.03;1.15;;;34.30;24.10;;;;;;5044297;28;20566;-68
2021/05/12 08:09:18;;;;;;;3.55;1.10;;;34.40;22.90;;;;;;5046204;28;20026;-69
2021/05/12 08:11:43;;;;;;;4.40;1.20;;;33.70;23.40;;;;;;5046433;28;20036;-69
2021/05/12 08:14:09;;;;;;;5.10;1.52;;;33.70;23.60;;;;;;5044118;28;20819;-69
2021/05/12 08:16:35;;;;;;;2.70;1.30;;;33.90;23.90;;;;;;5045081;28;20512;-68
2021/05/12 08:19:00;;;;;;;3.90;1.08;;;34.10;24.30;;;;;;5045797;28;20056;-69
2021/05/12 08:21:26;;;;;;;3.90;1.10;;;34.40;23.40;;;;;;5045421;28;20549;-68
2021/05/12 08:23:53;;;;;;;3.45;1.23;;;34.10;23.50;;;;;;5045900;28;20466;-68
2021/05/12 08:26:19;;;;;;;5.70;1.50;;;33.50;23.30;;;;;;5045850;28;20021;-68
2021/05/12 08:28:44;;;;;;;3.88;1.50;;;33.40;24.60;;;;;;5045844;28;20052;-68
2021/05/12 08:31:14;;;;;;;2.15;1.02;;;33.50;24.70;;;;;;5045269;28;20061;-68
2021/05/12 08:33:42;;;;;;;8.50;1.50;;;33.30;24.00;;;;;;5045803;28;20021;-68
2021/05/12 08:36:08;;;;;;;6.15;1.80;;;32.80;24.40;;;;;;5045255;28;20083;-67
2021/05/12 08:38:34;;;;;;;9.68;1.88;;;32.30;25.50;;;;;;5045204;28;20033;-69
2021/05/12 08:41:02;;;;;;;10.35;1.95;;;32.40;25.70;;;;;;5045706;28;20409;-68
2021/05/12 08:43:30;;;;;;;5.18;1.33;;;32.80;24.90;;;;;;5045559;28;20025;-68
2021/05/12 08:45:56;;;;;;;8.23;1.60;;;32.20;25.20;;;;;;5045097;28;20049;-68
2021/05/12 08:48:24;;;;;;;3.47;1.40;;;31.50;26.20;;;;;;5046433;28;20616;-68
2021/05/12 08:50:50;;;;;;;14.52;2.13;;;31.30;26.40;;;;;;5049121;28;20028;-69
2021/05/12 08:53:16;;;;;;;1.92;1.20;;;31.50;26.50;;;;;;5049479;28;20549;-68
2021/05/12 08:55:42;;;;;;;3.28;1.30;;;31.70;27.10;;;;;;5049060;28;20052;-68
2021/05/12 08:58:08;;;;;;;7.35;2.03;;;31.80;26.40;;;;;;5048915;28;20512;-69
2021/05/12 09:00:33;;;;;;;7.95;1.50;;;32.10;25.80;;;;;;5048628;28;20029;-68
2021/05/12 09:03:00;;;;;;;3.90;1.60;;;32.00;26.00;;;;;;5048981;28;20033;-68
2021/05/12 09:05:28;;;;;;;6.35;1.30;;;32.20;26.80;;;;;;5048481;28;20028;-68
2021/05/12 09:07:55;;;;;;;6.97;1.50;;;32.00;25.40;;;;;;5049127;28;20115;-68
2021/05/12 09:10:21;;;;;;;6.68;1.50;;;31.50;26.40;;;;;;5049016;28;20032;-67
2021/05/12 09:12:52;;;;;;;5.20;1.42;;;31.40;27.60;;;;;;5049008;28;20025;-66
2021/05/12 09:15:21;;;;;;;6.10;1.50;;;31.50;26.40;;;;;;5048014;28;20041;-68
2021/05/12 09:17:48;;;;;;;6.10;1.30;;;31.80;26.70;;;;;;5048748;28;20029;-67
2021/05/12 09:20:20;;;;;;;6.80;1.58;;;31.60;26.50;;;;;;5048777;28;20036;-68
2021/05/12 09:23:05;;;;;;;6.30;1.35;;;32.00;26.40;;;;;;5048787;28;20083;-68
2021/05/12 09:25:33;;;;;;;5.97;1.40;;;32.60;26.10;;;;;;5048532;28;20028;-68
2021/05/12 09:28:16;;;;;;;11.85;1.58;;;32.80;25.70;;;;;;5047203;28;20033;-68
2021/05/12 09:30:44;;;;;;;3.80;1.60;;;32.30;25.50;;;;;;5048027;28;20044;-68
2021/05/12 09:33:17;;;;;;;4.15;1.38;;;32.20;26.00;;;;;;5048681;28;20033;-67
2021/05/12 09:35:44;;;;;;;16.65;1.83;;;32.30;26.40;;;;;;5047186;28;20186;-68
2021/05/12 09:38:18;;;;;;;5.53;1.20;;;32.70;26.30;;;;;;5048690;28;20029;-67
2021/05/12 09:40:44;;;;;;;6.28;1.23;;;32.90;25.30;;;;;;5048199;28;20129;-68
2021/05/12 09:43:12;;;;;;;4.38;1.70;;;32.70;24.70;;;;;;5046911;28;20602;-67
2021/05/12 09:45:38;;;;;;;15.15;1.60;;;32.40;25.40;;;;;;5046402;28;20520;-68
2021/05/12 09:48:04;;;;;;;7.45;1.20;;;32.30;26.00;;;;;;5048362;28;20071;-67
2021/05/12 09:50:41;;;;;;;12.27;1.38;;;32.70;26.40;;;;;;5047734;28;20033;-67
2021/05/12 09:53:14;;;;;;;6.05;1.00;;;33.10;25.10;;;;;;5046892;28;20063;-67
2021/05/12 09:55:50;;;;;;;3.00;1.23;;;32.80;25.30;;;;;;5047781;28;20101;-67
2021/05/12 09:58:23;;;;;;;5.47;1.63;;;32.40;25.30;;;;;;5047829;28;20052;-67
2021/05/12 10:00:53;;;;;;;7.97;1.67;;;31.90;26.00;;;;;;5047816;28;20497;-66
2021/05/12 10:03:23;;;;;;;7.72;1.50;;;31.40;26.30;;;;;;5047990;28;20032;-67
2021/05/12 10:05:57;;;;;;;3.58;1.63;;;30.90;27.10;;;;;;5047628;28;20032;-67
2021/05/12 10:08:25;;;;;;;6.57;1.58;;;29.80;27.60;;;;;;5048057;28;20390;-67
2021/05/12 10:10:55;;;;;;;3.20;1.08;;;29.20;28.70;;;;;;5047868;28;20029;-67
2021/05/12 10:13:21;;;;;;;8.70;1.80;;;28.80;29.20;;;;;;5047301;28;20143;-67
2021/05/12 10:15:47;;;;;;;6.40;1.23;;;28.60;29.30;;;;;;5047566;28;20123;-66
2021/05/12 10:18:13;;;;;;;6.63;1.20;;;28.40;30.00;;;;;;5047332;28;20179;-67
2021/05/12 10:20:39;;;;;;;12.73;1.92;;;28.00;29.70;;;;;;5047369;28;20611;-67
2021/05/12 10:23:05;;;;;;;8.85;1.73;;;27.90;30.90;;;;;;5047760;28;20020;-67
2021/05/12 10:25:31;;;;;;;5.68;1.08;;;27.70;32.00;;;;;;5047120;28;20097;-66
2021/05/12 10:27:58;;;;;;;4.25;1.40;;;27.40;30.60;;;;;;5047512;28;20021;-65
2021/05/12 10:30:24;;;;;;;7.95;2.22;;;27.20;31.10;;;;;;5046662;28;20032;-67
2021/05/12 10:32:53;;;;;;;7.95;1.30;;;27.30;31.90;;;;;;5047416;28;20575;-66
2021/05/12 10:35:39;;;;;;;6.53;1.27;;;27.40;31.00;;;;;;5046929;28;20520;-67
2021/05/12 10:38:06;;;;;;;6.57;1.30;;;27.20;31.70;;;;;;5046069;28;20039;-67
2021/05/12 10:40:39;;;;;;;3.67;1.17;;;27.10;33.10;;;;;;5046741;28;20089;-66
2021/05/12 10:45:49;;;;;;;5.00;1.75;;;27.20;34.30;;;;;;5046804;28;20084;-66
2021/05/12 10:48:40;;;;;;;4.88;1.35;;;26.90;32.00;;;;;;5045828;28;20501;-67
2021/05/12 10:51:26;;;;;;;5.80;1.27;;;26.60;32.20;;;;;;5045836;28;20123;-66
2021/05/12 10:53:57;;;;;;;2.53;1.25;;;26.40;33.60;;;;;;5046949;28;20013;-67
2021/05/12 10:56:34;;;;;;;4.13;1.45;;;26.60;34.70;;;;;;5046373;28;20080;-66
2021/05/12 10:59:07;;;;;;;4.80;1.30;;;26.80;33.50;;;;;;5046449;28;20516;-67
2021/05/12 11:01:43;;;;;;;5.80;1.63;;;27.00;33.70;;;;;;5046790;28;20051;-67
2021/05/12 11:04:10;;;;;;;14.25;1.50;;;27.00;32.10;;;;;;5046732;28;20017;-67
2021/05/12 11:06:38;;;;;;;5.45;1.30;;;27.00;33.60;;;;;;5046612;28;20037;-67
2021/05/12 11:09:08;;;;;;;11.73;2.35;;;27.00;33.50;;;;;;5046736;28;20040;-66
2021/05/12 11:11:58;;;;;;;5.30;1.23;;;27.00;33.20;;;;;;5044900;28;20475;-67
2021/05/12 11:14:26;;;;;;;10.65;1.27;;;27.10;33.00;;;;;;5045948;28;20085;-67
2021/05/12 11:17:12;;;;;;;4.95;1.60;;;26.90;32.90;;;;;;5046266;28;20040;-67
2021/05/12 11:19:51;;;;;;;8.60;1.58;;;26.80;32.80;;;;;;5044952;28;20017;-65
2021/05/12 11:22:40;;;;;;;9.68;1.20;;;26.60;33.60;;;;;;5046576;28;20029;-67
2021/05/12 11:33:26;;;;;;;11.50;1.45;;;26.40;34.00;;;;;;5046360;28;20079;-66
2021/05/12 11:35:57;;;;;;;2.63;1.40;;;26.50;34.30;;;;;;5046064;28;20132;-67
2021/05/12 11:38:23;;;;;;;10.27;1.50;;;26.60;33.60;;;;;;5044829;28;20033;-67
2021/05/12 11:41:15;;;;;;;4.88;1.40;;;26.70;34.50;;;;;;5046408;28;20447;-67
2021/05/12 11:43:56;;;;;;;11.82;2.17;;;26.80;32.90;;;;;;5046016;28;20558;-67
2021/05/12 11:46:25;;;;;;;7.20;1.73;;;26.80;33.60;;;;;;5045770;28;20044;-67
2021/05/12 11:48:59;;;;;;;10.80;1.25;;;26.80;33.00;;;;;;5046347;28;20032;-67
2021/05/12 11:51:48;;;;;;;3.65;1.60;;;26.90;34.10;;;;;;5046074;28;20021;-67
2021/05/12 11:54:16;;;;;;;10.40;1.60;;;27.00;33.50;;;;;;5036952;28;20520;-66
2021/05/12 11:56:56;;;;;;;4.00;1.48;;;26.90;32.60;;;;;;5046062;28;20049;-67
2021/05/12 11:59:24;;;;;;;5.03;1.02;;;26.80;33.20;;;;;;5045452;28;20025;-66
2021/05/12 12:02:12;;;;;;;5.43;1.20;;;26.70;33.20;;;;;;5044799;28;20037;-67
2021/05/12 12:04:46;;;;;;;3.53;1.05;;;26.70;33.80;;;;;;5045745;28;20049;-67
2021/05/12 12:07:12;;;;;;;4.53;1.38;;;26.70;33.00;;;;;;5045701;28;20503;-67
2021/05/12 12:09:37;;;;;;;9.50;1.33;;;26.70;33.40;;;;;;5046028;28;20033;-67
2021/05/12 12:12:03;;;;;;;8.15;1.70;;;26.70;34.10;;;;;;5045614;28;20029;-67
2021/05/12 12:14:30;;;;;;;5.38;1.38;;;26.80;34.10;;;;;;5045584;28;20025;-69
2021/05/12 12:16:57;;;;;;;6.50;1.42;;;26.80;34.20;;;;;;5045791;28;20040;-68
2021/05/12 12:19:24;;;;;;;3.95;1.40;;;27.00;35.10;;;;;;5045479;28;20033;-67
2021/05/12 12:21:53;;;;;;;4.70;1.48;;;27.20;33.80;;;;;;5044699;28;20532;-68
2021/05/12 12:24:24;;;;;;;4.25;1.38;;;27.10;34.20;;;;;;5049480;28;20071;-67
2021/05/12 12:26:53;;;;;;;4.75;1.70;;;27.10;34.20;;;;;;5049133;28;20090;-68
2021/05/12 12:29:30;;;;;;;3.92;1.10;;;27.10;33.50;;;;;;5049242;28;20513;-68
2021/05/12 12:32:07;;;;;;;11.68;1.60;;;27.00;33.10;;;;;;5049265;28;20033;-68
2021/05/12 12:34:35;;;;;;;8.07;2.38;;;27.00;33.00;;;;;;5049061;28;20139;-67
2021/05/12 12:37:12;;;;;;;3.20;1.35;;;27.00;33.90;;;;;;5049519;28;20587;-68
2021/05/12 12:39:54;;;;;;;7.07;1.40;;;27.20;34.10;;;;;;5049532;28;20049;-68
2021/05/12 12:42:27;;;;;;;10.15;1.95;;;27.30;33.90;;;;;;5049318;28;20078;-67
2021/05/12 12:44:53;;;;;;;5.88;1.20;;;27.20;34.00;;;;;;5049228;28;20596;-67
2021/05/12 12:47:21;;;;;;;6.03;1.10;;;27.20;34.40;;;;;;5049314;28;20061;-68
2021/05/12 12:49:58;;;;;;;7.07;1.50;;;27.30;34.10;;;;;;5049531;28;20149;-68
2021/05/12 12:52:33;;;;;;;3.63;1.52;;;27.30;33.80;;;;;;5048014;28;20108;-67
2021/05/12 12:55:45;;;;;;;13.52;1.75;;;27.30;34.50;;;;;;5048791;28;20033;-68
2021/05/12 12:58:11;;;;;;;12.10;1.60;;;27.40;34.00;;;;;;5044322;28;20052;-67
2021/05/12 13:00:45;;;;;;;3.17;1.30;;;27.40;34.20;;;;;;5048844;28;20078;-67
2021/05/12 13:03:18;;;;;;;3.03;1.30;;;27.50;33.60;;;;;;5047742;28;20425;-68
2021/05/12 13:05:59;;;;;;;9.45;1.60;;;27.60;33.80;;;;;;5048756;28;20029;-68
2021/05/12 13:08:27;;;;;;;6.47;1.23;;;27.50;33.80;;;;;;5048919;28;20055;-68
2021/05/12 13:10:57;;;;;;;7.18;1.30;;;27.50;33.90;;;;;;5048915;28;20029;-68